Time;durP1;ratioP1;P1;durP2;ratioP2;P2;SDS_P1;SDS_P2;PMS_P1;PMS_P2;Temp;Humidity;BMP_temperature;BMP_pressure;BME280_temperature;BME280_humidity;BME280_pressure;Samples;Min_cycle;Max_cycle;Signal;HPM_P1;HPM_P2
2022/10/04 00:01:08;;;;;;;12.17;6.90;;;12.80;64.60;;;;;;5078252;28;20488;-90
2022/10/04 00:03:41;;;;;;;11.90;6.90;;;13.10;64.60;;;;;;5100001;28;20962;-91
2022/10/04 00:06:16;;;;;;;23.37;7.13;;;13.30;64.10;;;;;;5088933;28;20476;-90
2022/10/04 00:08:50;;;;;;;45.83;9.40;;;13.60;63.70;;;;;;5114025;28;20524;-90
2022/10/04 00:11:23;;;;;;;55.20;9.03;;;13.60;62.90;;;;;;5088917;28;20512;-91
2022/10/04 00:13:54;;;;;;;68.10;11.43;;;13.60;62.80;;;;;;5099085;28;20974;-91
2022/10/04 00:16:26;;;;;;;57.20;9.83;;;13.50;63.40;;;;;;5101384;28;20458;-91
2022/10/04 00:19:21;;;;;;;58.47;7.67;;;13.60;63.40;;;;;;5117552;28;20493;-91
2022/10/04 00:22:17;;;;;;;53.13;9.47;;;13.70;63.30;;;;;;5089406;28;20435;-90
2022/10/04 00:25:20;;;;;;;44.57;9.23;;;13.90;63.10;;;;;;5122245;28;20430;-91
2022/10/04 00:28:24;;;;;;;18.20;6.30;;;14.00;62.80;;;;;;5106630;28;20427;-90
2022/10/04 00:31:23;;;;;;;52.30;8.40;;;14.10;62.20;;;;;;5103875;27;20442;-91
2022/10/04 00:34:18;;;;;;;23.80;6.73;;;14.00;62.10;;;;;;5029622;28;21119;-90
2022/10/04 00:36:56;;;;;;;57.40;8.50;;;14.00;62.00;;;;;;5115068;27;21245;-91
2022/10/04 00:39:42;;;;;;;22.30;6.47;;;14.00;62.10;;;;;;5101550;27;20452;-89
2022/10/04 00:42:35;;;;;;;53.83;9.03;;;14.00;62.50;;;;;;5106115;27;20541;-89
2022/10/04 00:45:11;;;;;;;68.67;10.10;;;14.00;61.90;;;;;;5115037;27;20448;-89
2022/10/04 00:47:57;;;;;;;38.30;7.20;;;14.00;62.20;;;;;;5086925;27;20449;-90
2022/10/04 00:50:31;;;;;;;28.60;6.87;;;13.90;62.30;;;;;;5121700;27;20442;-90
2022/10/04 00:53:00;;;;;;;62.37;8.40;;;13.80;62.50;;;;;;5124612;27;20446;-90
2022/10/04 00:55:34;;;;;;;31.53;7.13;;;13.90;62.50;;;;;;5100272;27;20484;-90
2022/10/04 00:58:07;;;;;;;34.00;7.37;;;14.00;62.10;;;;;;5114384;27;20458;-90
2022/10/04 01:00:36;;;;;;;109.73;13.30;;;13.80;62.10;;;;;;5102438;27;20438;-90
2022/10/04 01:03:07;;;;;;;46.47;6.87;;;13.80;62.40;;;;;;5109140;27;21025;-90
2022/10/04 01:05:36;;;;;;;7.80;5.23;;;14.00;62.70;;;;;;5116955;27;20474;-90
2022/10/04 01:08:09;;;;;;;24.97;6.30;;;14.00;61.50;;;;;;5123020;27;20442;-89
2022/10/04 01:10:42;;;;;;;9.47;4.90;;;13.90;61.30;;;;;;5085566;27;20956;-91
2022/10/04 01:13:16;;;;;;;17.67;5.37;;;13.90;61.30;;;;;;5109760;27;20805;-91
2022/10/04 01:15:49;;;;;;;94.93;9.27;;;14.10;61.20;;;;;;5117834;27;20988;-91
2022/10/04 01:18:30;;;;;;;31.27;6.40;;;14.00;60.80;;;;;;5124775;27;20462;-90
2022/10/04 01:21:00;;;;;;;61.23;8.07;;;13.90;60.90;;;;;;5101213;27;20442;-91
2022/10/04 01:23:41;;;;;;;13.63;5.63;;;13.90;61.20;;;;;;5115552;27;20438;-90
2022/10/04 01:26:35;;;;;;;19.40;6.10;;;14.00;60.90;;;;;;5117642;27;20470;-89
2022/10/04 01:29:06;;;;;;;17.77;5.67;;;14.00;61.00;;;;;;5101127;27;20438;-90
2022/10/04 01:31:36;;;;;;;21.97;6.03;;;14.00;60.80;;;;;;5106710;27;20475;-89
2022/10/04 01:34:05;;;;;;;21.90;6.67;;;14.00;60.70;;;;;;5110016;27;20950;-91
2022/10/04 01:36:33;;;;;;;25.43;6.30;;;13.80;60.60;;;;;;5105830;27;20470;-91
2022/10/04 01:39:02;;;;;;;17.40;5.17;;;13.50;61.70;;;;;;5114038;27;20463;-90
2022/10/04 01:41:39;;;;;;;17.40;6.00;;;13.50;62.30;;;;;;5106899;27;20491;-91
2022/10/04 01:44:09;;;;;;;16.63;5.23;;;13.70;62.50;;;;;;5116351;27;20503;-90
2022/10/04 01:46:38;;;;;;;53.80;8.00;;;13.70;61.80;;;;;;5097776;27;20552;-91
2022/10/04 01:49:11;;;;;;;19.23;6.73;;;13.70;61.10;;;;;;5118397;27;21034;-89
2022/10/04 01:51:44;;;;;;;78.27;9.27;;;13.50;61.50;;;;;;5100891;27;20465;-89
2022/10/04 01:54:17;;;;;;;48.97;6.87;;;13.30;61.60;;;;;;5087478;27;20481;-90
2022/10/04 01:56:49;;;;;;;20.40;5.40;;;13.30;62.30;;;;;;5083117;27;20473;-91
2022/10/04 01:59:21;;;;;;;35.83;7.10;;;13.30;62.40;;;;;;5103567;27;20447;-90
2022/10/04 02:01:54;;;;;;;33.83;6.10;;;13.40;62.00;;;;;;5116967;27;20439;-89
2022/10/04 02:04:24;;;;;;;84.53;8.50;;;13.60;61.70;;;;;;5083803;27;20435;-92
2022/10/04 02:06:54;;;;;;;42.17;8.00;;;13.50;61.50;;;;;;5118159;27;20493;-90
2022/10/04 02:09:26;;;;;;;53.60;6.63;;;13.50;61.10;;;;;;5114424;27;20445;-91
2022/10/04 02:11:54;;;;;;;39.83;8.40;;;13.50;61.10;;;;;;5120602;27;20834;-91
2022/10/04 02:14:25;;;;;;;118.40;10.53;;;13.30;61.30;;;;;;5126287;27;20453;-91
2022/10/04 02:16:53;;;;;;;231.57;17.27;;;13.40;61.60;;;;;;5113788;27;20463;-90
2022/10/04 02:19:23;;;;;;;31.83;5.90;;;13.40;61.00;;;;;;5102279;27;20522;-90
2022/10/04 02:21:51;;;;;;;43.33;7.57;;;13.40;61.70;;;;;;5106029;27;20479;-91
2022/10/04 02:24:19;;;;;;;76.50;8.93;;;13.30;61.30;;;;;;5114395;27;20442;-89
2022/10/04 02:26:51;;;;;;;23.80;6.23;;;13.50;61.40;;;;;;5101378;27;20457;-91
2022/10/04 02:29:19;;;;;;;107.43;9.93;;;13.20;61.90;;;;;;5107746;27;20441;-90
2022/10/04 02:34:33;;;;;;;35.13;5.53;;;12.70;62.00;;;;;;5112623;27;20447;-89
2022/10/04 02:37:02;;;;;;;39.33;7.63;;;12.80;62.70;;;;;;5104074;27;20485;-90
2022/10/04 02:39:37;;;;;;;8.53;4.93;;;13.00;62.40;;;;;;5113036;27;20914;-90
2022/10/04 02:42:15;;;;;;;24.00;6.60;;;13.10;62.20;;;;;;5116542;27;20441;-90
2022/10/04 02:44:45;;;;;;;52.80;6.00;;;13.20;61.70;;;;;;5099129;27;20454;-90
2022/10/04 02:47:17;;;;;;;22.63;5.30;;;13.10;61.30;;;;;;5122863;27;20534;-90
2022/10/04 02:49:47;;;;;;;12.63;6.00;;;12.80;62.00;;;;;;5114529;27;20455;-89
2022/10/04 02:52:21;;;;;;;29.60;6.40;;;12.70;62.80;;;;;;5111982;27;20810;-89
2022/10/04 02:54:54;;;;;;;10.63;4.80;;;12.60;62.50;;;;;;5113411;27;20464;-89
2022/10/04 02:57:23;;;;;;;11.40;5.77;;;12.70;62.60;;;;;;5119775;27;20477;-90
2022/10/04 03:00:01;;;;;;;34.87;5.50;;;12.90;62.00;;;;;;5103144;27;20442;-89
2022/10/04 03:02:31;;;;;;;31.90;6.60;;;12.90;61.70;;;;;;5101607;27;20952;-90
2022/10/04 03:05:04;;;;;;;21.20;6.30;;;12.80;61.90;;;;;;5116213;27;20462;-89
2022/10/04 03:07:33;;;;;;;62.97;9.13;;;13.00;62.50;;;;;;5111240;27;20957;-90
2022/10/04 03:10:00;;;;;;;31.87;6.00;;;12.80;61.80;;;;;;5112505;27;20827;-89
2022/10/04 03:12:30;;;;;;;9.73;5.40;;;12.70;62.00;;;;;;5111063;27;20449;-89
2022/10/04 03:14:57;;;;;;;13.50;5.97;;;12.80;62.10;;;;;;5106594;27;20852;-91
2022/10/04 03:17:25;;;;;;;9.00;5.53;;;13.10;61.80;;;;;;5113765;27;20447;-90
2022/10/04 03:19:52;;;;;;;47.90;7.17;;;13.30;60.90;;;;;;5115911;27;20995;-90
2022/10/04 03:22:19;;;;;;;14.00;4.80;;;13.40;60.50;;;;;;5116874;27;20493;-89
2022/10/04 03:24:50;;;;;;;29.73;6.03;;;13.40;60.60;;;;;;5112271;27;20458;-90
2022/10/04 03:27:21;;;;;;;84.73;9.27;;;13.40;60.10;;;;;;5098170;27;20443;-89
2022/10/04 03:29:50;;;;;;;16.00;4.83;;;13.30;59.80;;;;;;5104996;27;20797;-90
2022/10/04 03:32:19;;;;;;;11.37;5.10;;;13.20;60.70;;;;;;5115430;27;20522;-89
2022/10/04 03:34:52;;;;;;;86.57;9.80;;;13.00;61.40;;;;;;5115012;27;20453;-90
2022/10/04 03:37:20;;;;;;;19.07;5.17;;;13.00;61.50;;;;;;5103733;27;20439;-89
2022/10/04 03:39:48;;;;;;;97.70;11.10;;;13.10;61.20;;;;;;5113928;27;20493;-90
2022/10/04 03:42:18;;;;;;;21.23;6.07;;;13.20;60.70;;;;;;5115798;27;20464;-89
2022/10/04 03:44:46;;;;;;;30.90;7.10;;;13.00;60.70;;;;;;5097561;27;20981;-89
2022/10/04 03:47:19;;;;;;;15.43;4.90;;;12.80;61.10;;;;;;5096333;27;20516;-89
2022/10/04 03:49:49;;;;;;;12.03;5.73;;;12.70;62.00;;;;;;5080980;27;20437;-90
2022/10/04 03:52:21;;;;;;;9.70;5.00;;;12.60;61.60;;;;;;5104472;27;20489;-90
2022/10/04 03:54:51;;;;;;;10.77;4.73;;;12.70;62.00;;;;;;5088551;27;20438;-90
2022/10/04 03:57:18;;;;;;;41.40;6.10;;;12.70;61.40;;;;;;5099605;28;20792;-91
2022/10/04 03:59:45;;;;;;;16.43;5.63;;;12.60;60.60;;;;;;5102478;28;20446;-91
2022/10/04 04:02:19;;;;;;;22.97;4.70;;;12.50;61.40;;;;;;5090634;28;20450;-92
2022/10/04 04:04:55;;;;;;;10.27;4.50;;;12.50;61.20;;;;;;5087517;28;20867;-91
2022/10/04 04:07:28;;;;;;;9.20;3.93;;;12.70;61.20;;;;;;5095137;28;20862;-90
2022/10/04 04:10:04;;;;;;;23.50;4.67;;;12.80;60.80;;;;;;5119514;27;20438;-91
2022/10/04 04:12:37;;;;;;;6.20;4.30;;;12.50;60.60;;;;;;5099967;28;20461;-90
2022/10/04 04:15:10;;;;;;;42.37;4.47;;;12.50;60.90;;;;;;5113660;28;20434;-91
2022/10/04 04:17:41;;;;;;;9.23;5.17;;;12.50;61.20;;;;;;5114472;28;20867;-91
2022/10/04 04:20:19;;;;;;;12.67;5.10;;;12.60;61.10;;;;;;5106267;28;20805;-90
2022/10/04 04:22:57;;;;;;;8.77;4.83;;;12.40;61.60;;;;;;5087010;28;20446;-89
2022/10/04 04:25:26;;;;;;;16.03;5.80;;;12.60;61.60;;;;;;5096670;28;20473;-91
2022/10/04 04:27:59;;;;;;;12.40;5.30;;;12.80;60.80;;;;;;5114748;28;20442;-91
2022/10/04 04:30:27;;;;;;;14.20;4.60;;;12.80;60.90;;;;;;5101430;28;20434;-92
2022/10/04 04:32:57;;;;;;;29.80;5.97;;;12.80;60.90;;;;;;5085675;28;20450;-92
2022/10/04 04:35:30;;;;;;;33.80;5.60;;;12.70;60.50;;;;;;5114730;28;20992;-92
2022/10/04 04:38:06;;;;;;;14.23;6.10;;;12.40;61.30;;;;;;5096779;28;20471;-91
2022/10/04 04:40:34;;;;;;;14.17;6.03;;;12.40;61.20;;;;;;5115719;28;20803;-91
2022/10/04 04:43:02;;;;;;;12.23;5.13;;;12.40;61.40;;;;;;5097645;28;20464;-91
2022/10/04 04:45:31;;;;;;;14.30;5.20;;;12.30;61.50;;;;;;5121563;28;20463;-91
2022/10/04 04:48:02;;;;;;;12.20;4.77;;;12.30;62.10;;;;;;5101412;28;20450;-91
2022/10/04 04:50:32;;;;;;;39.17;10.70;;;12.40;61.90;;;;;;5112990;28;20537;-92
2022/10/04 04:53:04;;;;;;;18.40;7.13;;;12.60;61.60;;;;;;5101070;28;20860;-91
2022/10/04 04:55:36;;;;;;;6.87;4.67;;;12.80;60.90;;;;;;5115231;28;20468;-91
2022/10/04 04:58:04;;;;;;;58.60;15.43;;;12.90;60.00;;;;;;5098874;28;20529;-91
2022/10/04 05:00:37;;;;;;;24.70;6.77;;;12.80;60.00;;;;;;5116511;28;20438;-91
2022/10/04 05:03:07;;;;;;;15.10;5.73;;;12.40;60.60;;;;;;5116724;28;20814;-91
2022/10/04 05:05:35;;;;;;;8.73;4.60;;;12.40;61.40;;;;;;5103220;28;20481;-91
2022/10/04 05:08:16;;;;;;;6.30;2.93;;;12.40;61.00;;;;;;5089649;28;20442;-90
2022/10/04 05:10:47;;;;;;;5.07;3.00;;;12.50;61.20;;;;;;5118416;28;20532;-91
2022/10/04 05:13:16;;;;;;;5.93;2.63;;;12.60;61.30;;;;;;5124659;28;20448;-91
2022/10/04 05:15:44;;;;;;;2.60;2.03;;;12.50;60.10;;;;;;5098286;27;20829;-91
2022/10/04 05:18:27;;;;;;;4.27;2.63;;;12.60;60.20;;;;;;5105634;27;20463;-91
2022/10/04 05:20:58;;;;;;;4.17;2.00;;;12.70;59.80;;;;;;5092654;27;20487;-92
2022/10/04 05:23:25;;;;;;;3.30;2.43;;;12.80;59.40;;;;;;5116045;27;22317;-90
2022/10/04 05:25:53;;;;;;;3.50;2.00;;;12.80;58.60;;;;;;5100480;27;20469;-92
2022/10/04 05:28:20;;;;;;;3.93;2.00;;;12.70;58.70;;;;;;5089702;27;20442;-92
2022/10/04 05:30:56;;;;;;;2.43;2.00;;;12.70;58.70;;;;;;5121131;27;20461;-92
2022/10/04 05:33:38;;;;;;;3.93;2.60;;;12.90;58.70;;;;;;5103080;27;20441;-92
2022/10/04 05:36:33;;;;;;;2.40;2.20;;;12.90;58.70;;;;;;5084401;27;20464;-92
2022/10/04 05:39:07;;;;;;;3.37;2.13;;;13.00;58.90;;;;;;5105038;27;21016;-92
2022/10/04 05:41:40;;;;;;;3.37;2.40;;;13.10;58.70;;;;;;5082865;27;20447;-91
2022/10/04 05:44:25;;;;;;;4.80;2.90;;;13.10;58.60;;;;;;5095620;27;20474;-91
2022/10/04 05:46:55;;;;;;;4.13;2.60;;;13.20;58.10;;;;;;5089192;27;20477;-91
2022/10/04 05:49:27;;;;;;;10.87;2.43;;;13.20;58.10;;;;;;5080577;27;20451;-90
2022/10/04 05:51:55;;;;;;;4.77;3.10;;;13.10;58.10;;;;;;5101291;27;20535;-92
2022/10/04 05:54:25;;;;;;;5.57;3.00;;;12.90;58.60;;;;;;5087086;27;20442;-91
2022/10/04 05:57:37;;;;;;;8.30;4.10;;;12.50;59.30;;;;;;5116784;27;20470;-92
2022/10/04 06:00:12;;;;;;;6.10;3.87;;;12.40;61.00;;;;;;5108314;27;20474;-91
2022/10/04 06:03:07;;;;;;;10.20;3.93;;;12.60;60.10;;;;;;5122894;27;20457;-92
2022/10/04 06:05:48;;;;;;;11.67;3.80;;;12.90;59.80;;;;;;5118735;27;20459;-92
2022/10/04 06:08:26;;;;;;;8.80;4.60;;;12.90;59.50;;;;;;5117629;27;20516;-91
2022/10/04 06:11:09;;;;;;;25.53;5.23;;;12.90;59.50;;;;;;5085090;27;20445;-92
2022/10/04 06:14:12;;;;;;;10.33;3.87;;;12.70;59.40;;;;;;5122090;27;20442;-92
2022/10/04 06:16:54;;;;;;;8.30;5.00;;;12.60;60.20;;;;;;5087110;27;20564;-92
2022/10/04 06:19:47;;;;;;;10.97;5.13;;;12.80;59.90;;;;;;5101193;27;20465;-92
2022/10/04 06:22:18;;;;;;;10.27;4.43;;;12.90;60.10;;;;;;5104161;27;20537;-92
2022/10/04 06:24:48;;;;;;;9.17;4.40;;;12.90;59.60;;;;;;5108536;27;20972;-91
2022/10/04 06:27:22;;;;;;;12.77;5.83;;;13.00;59.80;;;;;;5099740;27;20546;-92
2022/10/04 06:29:52;;;;;;;8.00;6.57;;;13.00;59.60;;;;;;5106933;27;20440;-91
2022/10/04 06:32:55;;;;;;;8.13;5.53;;;13.00;59.20;;;;;;5091512;27;20478;-92
2022/10/04 06:35:50;;;;;;;6.17;4.10;;;12.80;59.70;;;;;;5067328;27;20469;-90
2022/10/04 06:38:53;;;;;;;5.97;4.70;;;12.80;60.00;;;;;;5107734;27;20439;-92
2022/10/04 06:41:42;;;;;;;8.70;5.13;;;12.70;61.10;;;;;;5084730;27;20447;-92
2022/10/04 06:44:31;;;;;;;4.90;4.03;;;12.80;60.50;;;;;;5106933;27;20439;-90
2022/10/04 06:47:08;;;;;;;12.60;4.47;;;12.80;59.60;;;;;;5098197;28;20553;-91
2022/10/04 06:49:42;;;;;;;4.60;3.37;;;12.90;59.80;;;;;;5102052;27;21029;-92
2022/10/04 06:52:24;;;;;;;4.30;3.40;;;13.00;59.40;;;;;;5097036;27;20961;-92
2022/10/04 06:55:17;;;;;;;5.60;5.00;;;13.10;59.10;;;;;;5092761;27;20541;-91
2022/10/04 06:58:24;;;;;;;4.40;3.00;;;13.10;59.20;;;;;;5098236;27;20544;-91
2022/10/04 07:00:56;;;;;;;6.30;3.37;;;13.10;58.80;;;;;;5054920;27;20566;-92
2022/10/04 07:03:29;;;;;;;4.00;3.60;;;13.10;59.30;;;;;;5087129;27;21244;-92
2022/10/04 07:06:00;;;;;;;8.23;3.37;;;13.10;59.30;;;;;;5107870;27;20489;-91
2022/10/04 07:08:35;;;;;;;4.93;3.90;;;13.20;59.20;;;;;;5119646;27;20499;-92
2022/10/04 07:11:13;;;;;;;7.53;4.47;;;13.30;59.30;;;;;;5091936;27;20990;-92
2022/10/04 07:13:48;;;;;;;4.87;3.23;;;13.30;59.80;;;;;;5099997;27;20439;-92
2022/10/04 07:16:29;;;;;;;5.50;4.40;;;13.10;59.10;;;;;;5119881;27;20570;-92
2022/10/04 07:19:09;;;;;;;5.17;3.47;;;13.10;59.50;;;;;;5116239;27;21011;-93
2022/10/04 07:21:42;;;;;;;7.13;4.00;;;13.20;59.10;;;;;;5117028;27;20966;-92
2022/10/04 07:24:12;;;;;;;6.27;3.93;;;13.20;60.00;;;;;;5118049;27;20455;-91
2022/10/04 07:26:46;;;;;;;6.90;4.73;;;13.20;59.80;;;;;;5101918;27;20491;-91
2022/10/04 07:29:21;;;;;;;5.30;4.37;;;13.30;60.10;;;;;;5106399;28;20448;-92
2022/10/04 07:31:52;;;;;;;7.57;5.10;;;13.20;59.70;;;;;;5116861;27;20454;-92
2022/10/04 07:34:25;;;;;;;17.63;7.60;;;13.10;60.40;;;;;;5106401;27;20496;-91
2022/10/04 07:36:54;;;;;;;9.63;6.17;;;13.20;60.50;;;;;;5097421;28;20471;-92
2022/10/04 07:39:25;;;;;;;12.07;5.77;;;13.40;59.90;;;;;;5088107;27;20473;-92
2022/10/04 07:41:56;;;;;;;10.23;6.33;;;13.30;60.40;;;;;;5091899;27;20494;-91
2022/10/04 07:44:37;;;;;;;11.43;6.50;;;13.30;60.40;;;;;;5102669;27;20824;-91
2022/10/04 07:47:13;;;;;;;6.53;4.77;;;13.30;59.90;;;;;;5105346;28;20501;-92
2022/10/04 07:49:41;;;;;;;6.13;4.40;;;13.10;60.40;;;;;;5098413;28;20439;-92
2022/10/04 07:52:51;;;;;;;16.23;9.07;;;13.10;60.90;;;;;;5089910;28;20443;-92
2022/10/04 07:55:25;;;;;;;15.17;9.90;;;13.30;60.90;;;;;;5019598;28;20466;-92
2022/10/04 07:58:09;;;;;;;8.60;7.03;;;13.20;60.30;;;;;;5080530;28;20469;-91
2022/10/04 08:00:48;;;;;;;7.30;4.50;;;13.30;60.70;;;;;;5083367;28;20461;-91
2022/10/04 08:03:40;;;;;;;5.80;4.93;;;13.50;60.50;;;;;;5123871;28;20515;-92
2022/10/04 08:06:12;;;;;;;10.43;6.93;;;13.50;60.00;;;;;;5087669;28;20474;-92
2022/10/04 08:09:18;;;;;;;9.10;5.30;;;13.50;60.50;;;;;;5088998;28;20660;-92
2022/10/04 08:11:53;;;;;;;14.63;9.47;;;13.30;60.70;;;;;;5064803;28;20430;-92
2022/10/04 08:14:40;;;;;;;7.13;5.77;;;13.40;60.70;;;;;;5114933;28;20524;-92
2022/10/04 08:17:18;;;;;;;7.20;5.10;;;13.50;60.80;;;;;;5088650;28;20462;-92
2022/10/04 08:20:00;;;;;;;13.00;7.53;;;13.70;60.60;;;;;;5124800;28;20463;-91
2022/10/04 08:22:58;;;;;;;8.57;6.33;;;13.60;60.20;;;;;;5118933;28;20890;-92
2022/10/04 08:25:31;;;;;;;9.40;7.50;;;13.80;60.50;;;;;;5088320;28;20631;-92
2022/10/04 08:31:08;;;;;;;12.80;5.53;;;14.00;59.90;;;;;;5093519;28;20544;-91
2022/10/04 08:33:54;;;;;;;7.37;5.60;;;14.00;59.70;;;;;;5106423;28;20514;-91
2022/10/04 08:36:38;;;;;;;13.00;7.70;;;13.90;59.90;;;;;;5094312;28;20470;-90
2022/10/04 08:39:19;;;;;;;9.77;6.30;;;13.90;60.80;;;;;;5104272;28;20446;-93
2022/10/04 08:42:20;;;;;;;8.20;6.20;;;14.10;60.30;;;;;;5104756;28;20439;-91
2022/10/04 08:45:31;;;;;;;8.10;6.20;;;14.30;60.10;;;;;;5096926;28;20473;-92
2022/10/04 08:48:59;;;;;;;7.37;6.10;;;14.40;59.20;;;;;;5080106;28;20442;-93
2022/10/04 08:51:55;;;;;;;8.80;5.30;;;14.10;59.60;;;;;;5109403;27;20434;-92
2022/10/04 08:55:06;;;;;;;9.33;5.30;;;14.00;60.10;;;;;;5117052;27;20456;-91
2022/10/04 08:58:03;;;;;;;13.63;7.10;;;14.00;60.60;;;;;;5085514;27;20453;-91
2022/10/04 09:00:47;;;;;;;13.00;6.70;;;13.80;61.30;;;;;;5101903;28;20458;-93
2022/10/04 09:04:00;;;;;;;10.97;6.23;;;13.80;61.60;;;;;;5125612;27;20537;-91
2022/10/04 09:06:38;;;;;;;10.80;6.60;;;13.80;61.90;;;;;;5107223;27;20521;-92
2022/10/04 09:09:38;;;;;;;12.10;6.27;;;13.80;62.10;;;;;;5108530;28;20452;-90
2022/10/04 09:12:27;;;;;;;10.77;6.40;;;13.90;61.60;;;;;;5103309;27;20441;-90
2022/10/04 09:15:17;;;;;;;9.17;6.23;;;13.90;61.70;;;;;;5097473;27;20435;-91
2022/10/04 09:17:53;;;;;;;14.07;7.60;;;14.30;61.30;;;;;;5099848;27;20453;-93
2022/10/04 09:20:32;;;;;;;10.53;7.77;;;14.60;60.50;;;;;;5138947;27;20457;-92
2022/10/04 09:23:12;;;;;;;13.63;6.90;;;14.40;60.60;;;;;;5104939;27;20435;-93
2022/10/04 09:25:58;;;;;;;9.60;6.43;;;14.50;61.00;;;;;;5100641;27;20481;-92
2022/10/04 09:29:02;;;;;;;13.37;7.50;;;14.60;60.80;;;;;;5128009;27;20456;-94
2022/10/04 09:32:12;;;;;;;8.00;6.30;;;14.80;61.20;;;;;;5115930;27;20522;-93
2022/10/04 09:35:02;;;;;;;9.87;6.83;;;14.80;59.90;;;;;;5120858;27;20576;-93
2022/10/04 09:37:43;;;;;;;14.63;6.50;;;14.80;59.90;;;;;;5112665;27;20482;-93
2022/10/04 09:40:39;;;;;;;13.03;7.70;;;14.80;60.00;;;;;;5099284;28;20502;-94
2022/10/04 09:43:30;;;;;;;10.13;7.00;;;14.80;60.50;;;;;;5104522;27;20470;-91
2022/10/04 09:46:15;;;;;;;9.17;6.97;;;14.90;60.40;;;;;;5085124;27;20489;-93
2022/10/04 09:48:53;;;;;;;10.40;6.77;;;15.10;60.60;;;;;;5107695;27;21175;-93
2022/10/04 09:51:40;;;;;;;9.87;6.47;;;15.10;60.50;;;;;;5127644;27;20446;-93
2022/10/04 09:54:20;;;;;;;10.60;7.07;;;15.30;60.20;;;;;;5099427;27;20444;-93
2022/10/04 09:57:18;;;;;;;10.73;7.33;;;15.50;59.80;;;;;;5126786;27;20465;-94
2022/10/04 10:00:17;;;;;;;11.13;8.00;;;15.50;59.80;;;;;;5088050;27;20439;-95
2022/10/04 10:03:07;;;;;;;14.50;7.57;;;15.60;59.90;;;;;;5116791;27;20448;-95
2022/10/04 10:05:49;;;;;;;10.93;7.40;;;15.70;59.60;;;;;;5129501;27;20455;-93
2022/10/04 10:08:26;;;;;;;13.13;8.97;;;15.80;59.80;;;;;;5123491;27;20506;-93
2022/10/04 10:14:16;;;;;;;9.20;7.20;;;15.80;59.80;;;;;;5132902;27;20464;-93
2022/10/04 10:16:58;;;;;;;10.33;7.30;;;15.80;60.00;;;;;;5112813;27;20929;-92
2022/10/04 10:20:01;;;;;;;12.13;7.03;;;15.90;60.10;;;;;;5090168;27;20438;-92
2022/10/04 10:22:46;;;;;;;14.20;7.07;;;16.00;60.30;;;;;;5057216;27;20567;-94
2022/10/04 10:25:25;;;;;;;9.90;7.43;;;16.10;60.30;;;;;;5109812;27;20490;-94
2022/10/04 10:28:22;;;;;;;10.57;6.80;;;16.20;60.10;;;;;;5116385;27;20521;-92
2022/10/04 10:31:04;;;;;;;7.87;7.07;;;16.40;60.00;;;;;;5098182;27;20430;-92
2022/10/04 10:33:51;;;;;;;9.87;6.33;;;16.60;59.80;;;;;;5141926;27;20449;-92
2022/10/04 10:36:33;;;;;;;8.90;7.57;;;16.80;59.60;;;;;;5121777;27;20474;-92
2022/10/04 10:39:32;;;;;;;7.03;6.33;;;17.00;59.10;;;;;;5118262;27;20434;-93
2022/10/04 10:42:18;;;;;;;10.20;7.67;;;17.10;58.50;;;;;;5104214;27;20465;-92
2022/10/04 10:45:05;;;;;;;13.37;6.97;;;16.80;59.30;;;;;;5102115;27;20438;-92
2022/10/04 10:47:44;;;;;;;8.53;6.23;;;17.00;59.60;;;;;;5107665;27;20478;-95
2022/10/04 10:50:57;;;;;;;9.13;6.70;;;17.30;59.30;;;;;;5135634;27;20469;-92
2022/10/04 10:53:51;;;;;;;8.00;5.37;;;17.50;58.50;;;;;;5122247;27;20515;-94
2022/10/04 10:56:51;;;;;;;7.60;5.73;;;17.50;58.20;;;;;;5097223;28;20463;-93
2022/10/04 10:59:56;;;;;;;6.20;4.87;;;17.90;58.10;;;;;;5123216;27;20624;-93
2022/10/04 11:03:06;;;;;;;7.07;5.10;;;18.20;57.50;;;;;;5115811;27;21017;-91
2022/10/04 11:06:09;;;;;;;5.00;4.50;;;18.30;57.40;;;;;;5083074;27;20500;-93
2022/10/04 11:09:10;;;;;;;6.33;5.40;;;18.60;56.80;;;;;;5103770;27;20466;-93
2022/10/04 11:12:20;;;;;;;9.90;5.93;;;18.90;56.30;;;;;;5116633;27;20878;-92
2022/10/04 11:15:15;;;;;;;6.30;4.57;;;19.10;56.50;;;;;;5105947;27;20513;-93
2022/10/04 11:18:08;;;;;;;5.60;4.57;;;19.30;56.00;;;;;;5116708;27;20446;-93
2022/10/04 11:21:00;;;;;;;7.53;5.10;;;19.50;55.90;;;;;;5116940;27;20499;-93
2022/10/04 11:23:57;;;;;;;4.57;4.10;;;19.60;55.40;;;;;;5116402;27;20430;-93
2022/10/04 11:26:51;;;;;;;7.73;4.13;;;19.70;55.60;;;;;;5101856;27;20976;-93
2022/10/04 11:29:32;;;;;;;3.97;3.17;;;19.90;54.30;;;;;;5131066;27;20443;-92
2022/10/04 11:32:39;;;;;;;4.30;3.47;;;19.90;54.20;;;;;;5088054;28;20447;-92
2022/10/04 11:35:35;;;;;;;7.57;3.90;;;20.30;53.90;;;;;;5114395;27;20445;-91
2022/10/04 11:38:13;;;;;;;3.90;3.20;;;20.50;53.50;;;;;;5099775;27;20722;-93
2022/10/04 11:40:57;;;;;;;4.23;3.57;;;20.70;52.30;;;;;;5120365;27;20475;-92
2022/10/04 11:43:55;;;;;;;6.40;3.20;;;20.50;52.90;;;;;;5107726;27;20461;-93
2022/10/04 11:46:37;;;;;;;2.93;2.73;;;20.60;52.80;;;;;;5092135;27;20486;-92
2022/10/04 11:49:18;;;;;;;4.83;3.20;;;20.90;53.50;;;;;;5106963;28;20446;-93
2022/10/04 11:52:28;;;;;;;8.97;4.40;;;21.30;51.20;;;;;;5109186;28;20416;-93
2022/10/04 11:55:36;;;;;;;7.37;2.93;;;21.00;47.50;;;;;;5118389;28;20450;-92
2022/10/04 11:58:09;;;;;;;6.10;2.23;;;20.90;49.80;;;;;;5116108;27;20550;-92
2022/10/04 12:01:00;;;;;;;4.17;2.17;;;20.80;47.20;;;;;;5084410;28;20892;-93
2022/10/04 12:04:07;;;;;;;3.37;2.13;;;20.90;48.80;;;;;;5115077;27;20958;-91
2022/10/04 12:06:52;;;;;;;3.20;2.33;;;20.70;48.60;;;;;;5102636;28;20504;-92
2022/10/04 12:09:27;;;;;;;2.63;2.43;;;21.10;50.50;;;;;;5096460;28;20456;-94
2022/10/04 12:12:39;;;;;;;3.80;2.40;;;20.80;48.30;;;;;;5101521;28;20446;-92
2022/10/04 12:15:37;;;;;;;5.00;2.60;;;21.00;50.90;;;;;;5085064;28;20455;-91
2022/10/04 12:18:35;;;;;;;2.80;2.50;;;21.10;47.50;;;;;;5082336;28;21106;-92
2022/10/04 12:21:39;;;;;;;3.47;2.40;;;21.30;48.30;;;;;;5105543;28;20463;-93
2022/10/04 12:24:26;;;;;;;2.63;2.17;;;21.30;46.50;;;;;;5112792;27;20442;-92
2022/10/04 12:27:37;;;;;;;3.70;2.30;;;21.40;46.30;;;;;;5100359;27;20476;-93
2022/10/04 12:30:22;;;;;;;4.30;2.90;;;21.00;49.60;;;;;;5118021;27;21058;-93
2022/10/04 12:33:04;;;;;;;3.17;2.47;;;21.10;47.70;;;;;;5118533;27;20522;-94
2022/10/04 12:35:48;;;;;;;3.10;1.90;;;21.60;47.60;;;;;;5107359;27;20459;-93
2022/10/04 12:38:31;;;;;;;2.57;1.87;;;22.00;45.90;;;;;;5093004;27;20438;-92
2022/10/04 12:41:10;;;;;;;3.03;2.07;;;22.00;46.60;;;;;;5119617;27;20478;-94
2022/10/04 12:43:49;;;;;;;4.00;2.10;;;22.40;48.00;;;;;;5093561;27;20465;-92
2022/10/04 12:46:28;;;;;;;3.30;1.90;;;22.60;44.60;;;;;;5106018;28;20462;-93
2022/10/04 12:49:09;;;;;;;2.63;2.20;;;22.80;46.30;;;;;;5094084;27;20682;-92
2022/10/04 12:51:55;;;;;;;3.70;1.83;;;22.80;46.40;;;;;;5095174;27;20430;-94
2022/10/04 12:54:33;;;;;;;3.90;2.60;;;22.90;45.10;;;;;;5119397;27;20465;-92
2022/10/04 12:57:20;;;;;;;2.50;2.20;;;23.10;45.20;;;;;;5100060;27;20455;-93
2022/10/04 12:59:58;;;;;;;2.30;1.93;;;23.10;44.40;;;;;;5093969;27;20982;-93
2022/10/04 13:02:38;;;;;;;7.63;3.10;;;22.70;45.40;;;;;;5092167;27;20457;-94
2022/10/04 13:05:16;;;;;;;5.00;2.30;;;22.90;45.40;;;;;;5098761;27;20488;-93
2022/10/04 13:07:58;;;;;;;6.20;2.17;;;22.90;46.10;;;;;;5101294;27;20971;-93
2022/10/04 13:10:35;;;;;;;2.43;2.20;;;22.70;43.40;;;;;;5108467;27;20427;-92
2022/10/04 13:13:45;;;;;;;3.40;2.50;;;22.60;44.80;;;;;;5126772;27;20474;-91
2022/10/04 13:16:21;;;;;;;4.37;2.00;;;22.70;44.70;;;;;;5127806;27;20457;-94
2022/10/04 13:18:57;;;;;;;2.30;1.90;;;23.20;44.80;;;;;;5083343;27;20973;-93
2022/10/04 13:21:58;;;;;;;5.07;2.00;;;23.30;43.60;;;;;;5090312;27;20466;-93
2022/10/04 13:24:53;;;;;;;7.50;2.90;;;23.50;42.80;;;;;;5072604;27;20458;-93
2022/10/04 13:27:21;;;;;;;2.80;2.10;;;23.70;43.10;;;;;;5100527;27;20564;-92
2022/10/04 13:29:56;;;;;;;2.50;2.27;;;23.90;41.30;;;;;;5091988;27;20486;-93
2022/10/04 13:32:27;;;;;;;4.57;1.93;;;23.90;41.80;;;;;;5115202;27;20434;-92
2022/10/04 13:35:06;;;;;;;4.30;2.10;;;23.60;42.50;;;;;;5116990;27;20446;-93
2022/10/04 13:37:40;;;;;;;3.50;2.20;;;23.80;42.60;;;;;;5086339;27;20450;-93
2022/10/04 13:40:37;;;;;;;7.47;2.40;;;23.80;42.60;;;;;;5102331;27;20473;-93
2022/10/04 13:43:26;;;;;;;3.90;2.63;;;23.80;41.30;;;;;;5105349;27;20455;-94
2022/10/04 13:46:09;;;;;;;2.80;1.80;;;23.90;41.90;;;;;;5121377;27;20458;-94
2022/10/04 13:48:51;;;;;;;2.97;2.03;;;24.00;43.00;;;;;;5101014;27;20439;-93
2022/10/04 13:51:34;;;;;;;2.87;2.03;;;23.60;42.00;;;;;;5103614;27;20499;-93
2022/10/04 13:57:11;;;;;;;2.67;2.30;;;23.80;41.90;;;;;;5089182;27;21196;-92
2022/10/04 13:59:44;;;;;;;3.37;1.90;;;23.90;42.00;;;;;;5119130;27;20941;-93
2022/10/04 14:02:59;;;;;;;3.57;2.17;;;23.90;41.20;;;;;;5094622;27;20466;-94